Pagina principale
METAR-TAF:

METAR-TAF

Aeroporti :

Elsenborn

Bütgenbach, Belgio

latitudine: 50-28N, longitudine: 006-11E, altezza: 564 m

Osservazione

Il bollettino è stato emesso 2 ore e 18 minuti fa, alle 00:25 UTC
Vento 4 kt da ovest
Temperature 2°C
Umidità 93%
Pressione 1023 hPa
Visibilità 10 km o più

METAR: EBLB 240025Z AUTO 27004KT 9999 BKN018/// 02/01 Q1023 WHT

Ora: 03:43 (02:43 UTC)


TAF: mancante

Osservazioni e previsioni meteorologiche di più di 4000 aeroporti (messaggi METAR e TAF).

Le stazioni disponibili sono rappresentate dai dischi gialli e rossi sulla carta.

Puntare il mouse per vedere il nome della stazione.

Clicca sopra per visualizzare le osservazioni e previsioni meteorologiche.

Per cambiare la mappa : fare clic sui pulsanti verdi con una croce nera per ingrandire, il pulsante verde con un trattino per diminuire, o sulla freccia verde per le mappe adiacenti.


METAR-TAF: